Hyundai Republic — A8IL3 — position and weather

sailwx.info

Track history (hours):
 
Tides and Currents Weather Stations Pressure Air Temp Water Temp Dewpoint Dewpoint Depression Visibility Wind Speed Wind Dir Waves Ship Positions

Hyundai Republic

Last reported at 2014-Jul-21 20:03 UTC. Time now 2014-Jul-24 14:42 UTC.
Position N 22°19' E 114°06'.

Length 305 m; draft 11.4 m.

Type: Ship (hazmat cat A). MMSI: 636090994.

Date/timePositionNaut miles runAvg speedWind from/ knotsBaromVisibWave heightAir tempDewpointWater temp
2014-Jul-21 20:03N 22°19' E 114°06'0 0.0
2014-Jul-21 04:33N 22°19' E 114°06'18 1.0
2014-Jul-20 09:10N 22°35' E 114°17'0 0.0
2014-Jul-20 08:28N 22°35' E 114°17'0 0.0
2014-Jul-20 05:10N 22°35' E 114°17'0 0.0
2014-Jul-20 04:28N 22°35' E 114°17'0 0.0
2014-Jul-20 03:22N 22°35' E 114°17'15510.2
2014-Jul-19 12:08N 22°59' E 117°03'4913.7
2014-Jul-19 08:33N 23°30' E 117°44'1312.5
2014-Jul-19 07:33N 23°37' E 117°56'1313.0
2014-Jul-19 06:33N 23°45' E 118°07'1313.2
2014-Jul-19 05:33N 23°53' E 118°18'1313.2
2014-Jul-19 04:33N 24°02' E 118°28'1613.7
2014-Jul-19 03:25N 24°12' E 118°42'1213.5
2014-Jul-19 02:33N 24°19' E 118°52'2613.2
2014-Jul-19 00:33N 24°36' E 119°14'38113.1
2014-Jul-17 19:32N 29°59' E 123°01'2411.8
2014-Jul-17 17:31N 30°22' E 122°52'1111.7
2014-Jul-17 16:33N 30°29' E 122°42'1212.0
2014-Jul-17 15:33N 30°31' E 122°28'1111.4
2014-Jul-17 14:33N 30°33' E 122°15'1211.6
2014-Jul-17 13:32N 30°38' E 122°03'1 0.1
2014-Jul-16 23:33N 30°37' E 122°03'8 7.8
2014-Jul-16 22:32N 30°34' E 122°11'9 9.4
2014-Jul-16 21:33N 30°33' E 122°22'12 8.2
2014-Jul-16 20:05N 30°28' E 122°34'0 0.1
2014-Jul-16 17:05N 30°28' E 122°34'0 0.1
2014-Jul-16 15:23N 30°28' E 122°34'0 0.1
2014-Jul-16 14:23N 30°28' E 122°34'0 0.2
2014-Jul-16 13:32N 30°27' E 122°34'0 0.1
2014-Jul-16 12:33N 30°27' E 122°34'9 9.4
2014-Jul-16 11:33N 30°25' E 122°45'1211.8
2014-Jul-16 10:33N 30°20' E 122°57'1411.1
2014-Jul-16 09:18N 30°06' E 122°59'1013.1
2014-Jul-16 08:31N 29°58' E 122°52'1314.0
2014-Jul-16 07:33N 29°50' E 122°40'1414.4
2014-Jul-16 06:34N 29°44' E 122°25'1111.5
2014-Jul-16 05:34N 29°49' E 122°13'4 3.6
2014-Jul-16 04:34N 29°50' E 122°09'0 0.1
2014-Jul-16 03:33N 29°50' E 122°09'3 2.7
2014-Jul-16 02:34N 29°49' E 122°06'6 5.4
2014-Jul-16 01:29N 29°46' E 122°00'0 0.0
2014-Jul-16 00:26N 29°46' E 122°00'0 0.0
2014-Jul-15 23:26N 29°46' E 122°00'0 0.0
2014-Jul-15 22:32N 29°46' E 122°00'0 0.0
2014-Jul-15 21:32N 29°46' E 122°00'0 0.0
2014-Jul-15 20:26N 29°46' E 122°00'0 0.0
2014-Jul-15 19:32N 29°46' E 122°00'0 0.0
2014-Jul-15 18:31N 29°46' E 122°00'0 0.0
2014-Jul-15 17:25N 29°46' E 122°00'0 0.0
2014-Jul-15 16:31N 29°46' E 122°00'0 0.0
2014-Jul-15 15:31N 29°46' E 122°00'0 0.0
2014-Jul-15 14:25N 29°46' E 122°00'0 0.0
2014-Jul-15 13:25N 29°46' E 122°00'0 0.0
2014-Jul-15 12:31N 29°46' E 122°00'0 0.0
2014-Jul-15 11:25N 29°46' E 122°00'0 0.0
2014-Jul-15 10:29N 29°46' E 122°00'0 0.0
2014-Jul-15 09:29N 29°46' E 122°00'0 0.0
2014-Jul-15 08:29N 29°46' E 122°00'0 0.0
2014-Jul-15 07:17N 29°46' E 122°00'0 0.0
2014-Jul-15 06:29N 29°46' E 122°00'3 3.0
2014-Jul-15 05:33N 29°47' E 122°03'9 8.7
2014-Jul-15 04:33N 29°51' E 122°12'10 9.6
2014-Jul-15 03:33N 29°45' E 122°21'6 6.1
2014-Jul-15 02:33N 29°43' E 122°27'0 0.1
2014-Jul-15 01:33N 29°43' E 122°27'4 4.1
2014-Jul-15 00:33N 29°44' E 122°23'10 9.9
2014-Jul-14 23:33N 29°38' E 122°32'1712.8
2014-Jul-14 22:13N 29°21' E 122°34'913.1
2014-Jul-14 21:33N 29°13' E 122°32'40513.7
2014-Jul-13 16:07N 22°53' E 119°57'814.0
2014-Jul-13 15:33N 22°46' E 120°03'1413.5
2014-Jul-13 14:33N 22°35' E 120°11'8 8.1
2014-Jul-13 13:33N 22°33' E 120°20'0 0.0
2014-Jul-13 12:31N 22°33' E 120°20'0 0.0
2014-Jul-13 11:31N 22°33' E 120°20'0 0.0
2014-Jul-13 09:07N 22°33' E 120°20'0 0.0
2014-Jul-13 08:31N 22°33' E 120°20'0 0.0
2014-Jul-13 07:31N 22°33' E 120°20'0 0.0
2014-Jul-13 06:25N 22°33' E 120°20'0 0.0
2014-Jul-13 05:25N 22°33' E 120°20'0 0.0
2014-Jul-13 04:24N 22°33' E 120°20'0 0.0
2014-Jul-13 03:30N 22°33' E 120°20'0 0.0
2014-Jul-13 02:30N 22°33' E 120°20'1 1.2
2014-Jul-13 01:33N 22°33' E 120°18'3 3.4
2014-Jul-13 00:32N 22°31' E 120°15'0 0.1
2014-Jul-12 23:32N 22°31' E 120°15'0 0.1
2014-Jul-12 22:32N 22°31' E 120°15'0 0.0
2014-Jul-12 21:32N 22°31' E 120°15'0 0.1
2014-Jul-12 20:32N 22°31' E 120°15'0 0.0
2014-Jul-12 19:32N 22°31' E 120°15'0 0.0
2014-Jul-12 18:29N 22°31' E 120°15'0 0.0
2014-Jul-12 17:29N 22°31' E 120°15'0 0.1
2014-Jul-12 16:29N 22°31' E 120°15'0 0.1
2014-Jul-12 15:29N 22°31' E 120°15'0 0.1
2014-Jul-12 14:22N 22°31' E 120°15'0 0.1
2014-Jul-12 13:28N 22°31' E 120°15'0 0.0
2014-Jul-12 12:28N 22°32' E 120°15'0 0.1
2014-Jul-12 11:28N 22°31' E 120°15'0 0.0
2014-Jul-12 10:28N 22°31' E 120°15'0 0.1
2014-Jul-12 09:28N 22°31' E 120°15'0 0.1
2014-Jul-12 08:33N 22°31' E 120°15'5 5.1
2014-Jul-12 07:33N 22°28' E 120°11'1414.2
2014-Jul-12 06:32N 22°16' E 120°02'1514.5
2014-Jul-12 05:29N 22°04' E 119°52'  
Track history (hours):
 
Tides and Currents Weather Stations Pressure Air Temp Water Temp Dewpoint Dewpoint Depression Visibility Wind Speed Wind Dir Waves Ship Positions

Hyundai Republic

Last reported at 2014-Jul-21 20:03 UTC. Time now 2014-Jul-24 14:42 UTC.
Position N 22°19' E 114°06'.

Length 305 m; draft 11.4 m.

Type: Ship (hazmat cat A). MMSI: 636090994.

Date/timePositionNaut miles runAvg speedWind from/ knotsBaromVisibWave heightAir tempDewpointWater temp
2014-Jul-21 20:03N 22°19' E 114°06'0 0.0
2014-Jul-21 04:33N 22°19' E 114°06'18 1.0
2014-Jul-20 09:10N 22°35' E 114°17'0 0.0
2014-Jul-20 08:28N 22°35' E 114°17'0 0.0
2014-Jul-20 05:10N 22°35' E 114°17'0 0.0
2014-Jul-20 04:28N 22°35' E 114°17'0 0.0
2014-Jul-20 03:22N 22°35' E 114°17'15510.2
2014-Jul-19 12:08N 22°59' E 117°03'4913.7
2014-Jul-19 08:33N 23°30' E 117°44'1312.5
2014-Jul-19 07:33N 23°37' E 117°56'1313.0
2014-Jul-19 06:33N 23°45' E 118°07'1313.2
2014-Jul-19 05:33N 23°53' E 118°18'1313.2
2014-Jul-19 04:33N 24°02' E 118°28'1613.7
2014-Jul-19 03:25N 24°12' E 118°42'1213.5
2014-Jul-19 02:33N 24°19' E 118°52'2613.2
2014-Jul-19 00:33N 24°36' E 119°14'38113.1
2014-Jul-17 19:32N 29°59' E 123°01'2411.8
2014-Jul-17 17:31N 30°22' E 122°52'1111.7
2014-Jul-17 16:33N 30°29' E 122°42'1212.0
2014-Jul-17 15:33N 30°31' E 122°28'1111.4
2014-Jul-17 14:33N 30°33' E 122°15'1211.6
2014-Jul-17 13:32N 30°38' E 122°03'1 0.1
2014-Jul-16 23:33N 30°37' E 122°03'8 7.8
2014-Jul-16 22:32N 30°34' E 122°11'9 9.4
2014-Jul-16 21:33N 30°33' E 122°22'12 8.2
2014-Jul-16 20:05N 30°28' E 122°34'0 0.1
2014-Jul-16 17:05N 30°28' E 122°34'0 0.1
2014-Jul-16 15:23N 30°28' E 122°34'0 0.1
2014-Jul-16 14:23N 30°28' E 122°34'0 0.2
2014-Jul-16 13:32N 30°27' E 122°34'0 0.1
2014-Jul-16 12:33N 30°27' E 122°34'9 9.4
2014-Jul-16 11:33N 30°25' E 122°45'1211.8
2014-Jul-16 10:33N 30°20' E 122°57'1411.1
2014-Jul-16 09:18N 30°06' E 122°59'1013.1
2014-Jul-16 08:31N 29°58' E 122°52'1314.0
2014-Jul-16 07:33N 29°50' E 122°40'1414.4
2014-Jul-16 06:34N 29°44' E 122°25'1111.5
2014-Jul-16 05:34N 29°49' E 122°13'4 3.6
2014-Jul-16 04:34N 29°50' E 122°09'0 0.1
2014-Jul-16 03:33N 29°50' E 122°09'3 2.7
2014-Jul-16 02:34N 29°49' E 122°06'6 5.4
2014-Jul-16 01:29N 29°46' E 122°00'0 0.0
2014-Jul-16 00:26N 29°46' E 122°00'0 0.0
2014-Jul-15 23:26N 29°46' E 122°00'0 0.0
2014-Jul-15 22:32N 29°46' E 122°00'0 0.0
2014-Jul-15 21:32N 29°46' E 122°00'0 0.0
2014-Jul-15 20:26N 29°46' E 122°00'0 0.0
2014-Jul-15 19:32N 29°46' E 122°00'0 0.0
2014-Jul-15 18:31N 29°46' E 122°00'0 0.0
2014-Jul-15 17:25N 29°46' E 122°00'0 0.0
2014-Jul-15 16:31N 29°46' E 122°00'0 0.0
2014-Jul-15 15:31N 29°46' E 122°00'0 0.0
2014-Jul-15 14:25N 29°46' E 122°00'0 0.0
2014-Jul-15 13:25N 29°46' E 122°00'0 0.0
2014-Jul-15 12:31N 29°46' E 122°00'0 0.0
2014-Jul-15 11:25N 29°46' E 122°00'0 0.0
2014-Jul-15 10:29N 29°46' E 122°00'0 0.0
2014-Jul-15 09:29N 29°46' E 122°00'0 0.0
2014-Jul-15 08:29N 29°46' E 122°00'0 0.0
2014-Jul-15 07:17N 29°46' E 122°00'0 0.0
2014-Jul-15 06:29N 29°46' E 122°00'3 3.0
2014-Jul-15 05:33N 29°47' E 122°03'9 8.7
2014-Jul-15 04:33N 29°51' E 122°12'10 9.6
2014-Jul-15 03:33N 29°45' E 122°21'6 6.1
2014-Jul-15 02:33N 29°43' E 122°27'0 0.1
2014-Jul-15 01:33N 29°43' E 122°27'4 4.1
2014-Jul-15 00:33N 29°44' E 122°23'10 9.9
2014-Jul-14 23:33N 29°38' E 122°32'1712.8
2014-Jul-14 22:13N 29°21' E 122°34'913.1
2014-Jul-14 21:33N 29°13' E 122°32'40513.7
2014-Jul-13 16:07N 22°53' E 119°57'814.0
2014-Jul-13 15:33N 22°46' E 120°03'1413.5
2014-Jul-13 14:33N 22°35' E 120°11'8 8.1
2014-Jul-13 13:33N 22°33' E 120°20'0 0.0
2014-Jul-13 12:31N 22°33' E 120°20'0 0.0
2014-Jul-13 11:31N 22°33' E 120°20'0 0.0
2014-Jul-13 09:07N 22°33' E 120°20'0 0.0
2014-Jul-13 08:31N 22°33' E 120°20'0 0.0
2014-Jul-13 07:31N 22°33' E 120°20'0 0.0
2014-Jul-13 06:25N 22°33' E 120°20'0 0.0
2014-Jul-13 05:25N 22°33' E 120°20'0 0.0
2014-Jul-13 04:24N 22°33' E 120°20'0 0.0
2014-Jul-13 03:30N 22°33' E 120°20'0 0.0
2014-Jul-13 02:30N 22°33' E 120°20'1 1.2
2014-Jul-13 01:33N 22°33' E 120°18'3 3.4
2014-Jul-13 00:32N 22°31' E 120°15'0 0.1
2014-Jul-12 23:32N 22°31' E 120°15'0 0.1
2014-Jul-12 22:32N 22°31' E 120°15'0 0.0
2014-Jul-12 21:32N 22°31' E 120°15'0 0.1
2014-Jul-12 20:32N 22°31' E 120°15'0 0.0
2014-Jul-12 19:32N 22°31' E 120°15'0 0.0
2014-Jul-12 18:29N 22°31' E 120°15'0 0.0
2014-Jul-12 17:29N 22°31' E 120°15'0 0.1
2014-Jul-12 16:29N 22°31' E 120°15'0 0.1
2014-Jul-12 15:29N 22°31' E 120°15'0 0.1
2014-Jul-12 14:22N 22°31' E 120°15'0 0.1
2014-Jul-12 13:28N 22°31' E 120°15'0 0.0
2014-Jul-12 12:28N 22°32' E 120°15'0 0.1
2014-Jul-12 11:28N 22°31' E 120°15'0 0.0
2014-Jul-12 10:28N 22°31' E 120°15'0 0.1
2014-Jul-12 09:28N 22°31' E 120°15'0 0.1
2014-Jul-12 08:33N 22°31' E 120°15'5 5.1
2014-Jul-12 07:33N 22°28' E 120°11'1414.2
2014-Jul-12 06:32N 22°16' E 120°02'1514.5
2014-Jul-12 05:29N 22°04' E 119°52'  

Dump ship's entire track history